Time;durP1;ratioP1;P1;durP2;ratioP2;P2;SDS_P1;SDS_P2;PMS_P1;PMS_P2;Temp;Humidity;BMP_temperature;BMP_pressure;BME280_temperature;BME280_humidity;BME280_pressure;Samples;Min_cycle;Max_cycle;Signal;HPM_P1;HPM_P2
2021/12/07 00:00:14;;;;;;;;;3.00;2.75;;;;;;;;5109791;27;45440;-76
2021/12/07 00:02:40;;;;;;;;;2.50;2.25;;;;;;;;5112350;27;45644;-76
2021/12/07 00:05:05;;;;;;;;;3.75;2.50;;;;;;;;5094746;27;45494;-74
2021/12/07 00:07:30;;;;;;;;;4.00;2.50;;;;;;;;5114697;27;45467;-77
2021/12/07 00:09:56;;;;;;;;;4.25;4.00;;;;;;;;5113916;27;45363;-76
2021/12/07 00:12:21;;;;;;;;;2.00;2.00;;;;;;;;5111538;27;45329;-76
2021/12/07 00:14:47;;;;;;;;;3.00;3.00;;;;;;;;5111453;27;45356;-76
2021/12/07 00:17:12;;;;;;;;;4.00;3.00;;;;;;;;5093417;27;46227;-76
2021/12/07 00:19:38;;;;;;;;;4.25;3.00;;;;;;;;5097087;27;45365;-76
2021/12/07 00:22:04;;;;;;;;;2.00;1.75;;;;;;;;5095088;27;45531;-76
2021/12/07 00:24:29;;;;;;;;;3.00;2.00;;;;;;;;5092845;27;45522;-76
2021/12/07 00:26:55;;;;;;;;;1.00;1.00;;;;;;;;5090652;27;46508;-75
2021/12/07 00:29:20;;;;;;;;;3.00;2.00;;;;;;;;5084354;27;45708;-76
2021/12/07 00:31:53;;;;;;;;;4.50;2.25;;;;;;;;5080231;27;45392;-75
2021/12/07 00:34:42;;;;;;;;;6.00;3.00;;;;;;;;5100846;27;45403;-75
2021/12/07 00:37:09;;;;;;;;;2.00;2.00;;;;;;;;5096862;27;47852;-75
2021/12/07 00:39:35;;;;;;;;;7.00;4.00;;;;;;;;5111275;27;45664;-75
2021/12/07 00:42:00;;;;;;;;;3.00;3.00;;;;;;;;5092890;27;45509;-75
2021/12/07 00:44:26;;;;;;;;;2.75;2.75;;;;;;;;5111054;27;45421;-75
2021/12/07 00:46:52;;;;;;;;;4.00;3.00;;;;;;;;5095649;27;47811;-76
2021/12/07 00:49:18;;;;;;;;;2.75;2.25;;;;;;;;5113440;27;45367;-75
2021/12/07 00:51:43;;;;;;;;;1.50;1.50;;;;;;;;5111628;27;45372;-76
2021/12/07 00:54:09;;;;;;;;;1.50;1.25;;;;;;;;5092381;27;45739;-75
2021/12/07 00:56:35;;;;;;;;;3.00;2.00;;;;;;;;5091601;27;48447;-75
2021/12/07 00:59:00;;;;;;;;;0.00;0.00;;;;;;;;5113229;27;45400;-75
2021/12/07 01:01:25;;;;;;;;;3.00;1.00;;;;;;;;5113456;27;45427;-73
2021/12/07 01:03:51;;;;;;;;;2.00;2.00;;;;;;;;5112346;27;45337;-75
2021/12/07 01:08:59;;;;;;;;;1.75;1.00;;;;;;;;5109796;27;45290;-75
2021/12/07 01:25:08;;;;;;;;;0.00;0.00;;;;;;;;5100847;27;45506;-75
2021/12/07 01:27:33;;;;;;;;;1.25;1.25;;;;;;;;5102415;27;47448;-75
2021/12/07 01:30:31;;;;;;;;;2.75;1.00;;;;;;;;5109561;27;45383;-76
2021/12/07 01:41:21;;;;;;;;;1.00;1.00;;;;;;;;5112035;27;45451;-74
2021/12/07 02:01:37;;;;;;;;;1.00;1.00;;;;;;;;5117277;27;45342;-76
2021/12/07 02:04:03;;;;;;;;;0.75;0.75;;;;;;;;5097360;27;45437;-76
2021/12/07 02:06:28;;;;;;;;;1.25;1.00;;;;;;;;5113653;27;45289;-76
2021/12/07 02:08:53;;;;;;;;;1.50;1.50;;;;;;;;5113678;27;46222;-77
2021/12/07 02:11:18;;;;;;;;;0.50;0.00;;;;;;;;5094729;27;45389;-76
2021/12/07 02:16:12;;;;;;;;;1.00;1.00;;;;;;;;5115097;27;45376;-76
2021/12/07 02:18:38;;;;;;;;;0.00;0.00;;;;;;;;5094758;27;48354;-76
2021/12/07 02:21:13;;;;;;;;;1.00;0.00;;;;;;;;5094813;27;45432;-76
2021/12/07 02:23:38;;;;;;;;;0.00;0.00;;;;;;;;5094976;27;45436;-77
2021/12/07 02:26:03;;;;;;;;;0.00;0.00;;;;;;;;5097531;27;45424;-75
2021/12/07 02:28:29;;;;;;;;;3.00;0.00;;;;;;;;5083422;27;47470;-76
2021/12/07 02:30:54;;;;;;;;;2.50;0.25;;;;;;;;5099273;27;45430;-77
2021/12/07 02:33:19;;;;;;;;;1.00;0.75;;;;;;;;5113293;27;45478;-77
2021/12/07 02:35:44;;;;;;;;;0.00;0.00;;;;;;;;5113157;27;45384;-76
2021/12/07 02:38:10;;;;;;;;;1.00;0.00;;;;;;;;5098500;27;48486;-73
2021/12/07 02:40:35;;;;;;;;;0.25;0.00;;;;;;;;5117476;27;45476;-75
2021/12/07 02:43:00;;;;;;;;;0.75;0.75;;;;;;;;5115161;27;45463;-75
2021/12/07 02:45:26;;;;;;;;;1.00;0.00;;;;;;;;5112896;27;45435;-75
2021/12/07 02:47:51;;;;;;;;;2.00;0.00;;;;;;;;5094253;27;47651;-76
2021/12/07 02:50:17;;;;;;;;;0.00;0.00;;;;;;;;5094692;27;45179;-76
2021/12/07 02:52:42;;;;;;;;;1.00;0.00;;;;;;;;5102190;27;45491;-76
2021/12/07 02:55:08;;;;;;;;;0.00;0.00;;;;;;;;5119202;27;45335;-77
2021/12/07 02:57:34;;;;;;;;;2.50;1.00;;;;;;;;5088445;27;47578;-76
2021/12/07 03:00:07;;;;;;;;;2.75;2.00;;;;;;;;5104461;27;45369;-77
2021/12/07 03:02:37;;;;;;;;;1.25;0.00;;;;;;;;5104426;27;47180;-76
2021/12/07 03:05:25;;;;;;;;;1.00;1.00;;;;;;;;5102266;27;45422;-75
2021/12/07 03:26:41;;;;;;;;;2.00;1.00;;;;;;;;5043047;28;45337;-76
2021/12/07 03:29:06;;;;;;;;;1.00;1.00;;;;;;;;5041447;28;48353;-75
2021/12/07 03:31:33;;;;;;;;;2.25;1.00;;;;;;;;5037227;28;45532;-76
2021/12/07 03:34:00;;;;;;;;;3.50;1.75;;;;;;;;5055167;28;45430;-75
2021/12/07 03:36:26;;;;;;;;;2.00;2.00;;;;;;;;5036152;28;45411;-75
2021/12/07 03:38:51;;;;;;;;;0.75;0.75;;;;;;;;5049948;28;45270;-76
2021/12/07 03:41:16;;;;;;;;;1.50;1.50;;;;;;;;5043700;28;46159;-76
2021/12/07 03:43:42;;;;;;;;;2.50;1.00;;;;;;;;5038145;28;45364;-76
2021/12/07 03:46:08;;;;;;;;;1.50;0.50;;;;;;;;5039362;28;45460;-77
2021/12/07 03:48:33;;;;;;;;;2.00;1.25;;;;;;;;5052063;28;48674;-76
2021/12/07 03:50:59;;;;;;;;;1.00;1.00;;;;;;;;5036588;28;45446;-75
2021/12/07 03:53:25;;;;;;;;;1.00;1.00;;;;;;;;5091311;27;45531;-76
2021/12/07 03:55:50;;;;;;;;;2.75;0.75;;;;;;;;5097271;27;45403;-76
2021/12/07 03:58:15;;;;;;;;;3.00;1.25;;;;;;;;5114036;27;45582;-76
2021/12/07 04:00:42;;;;;;;;;1.00;1.00;;;;;;;;5111929;27;45465;-76
2021/12/07 04:03:11;;;;;;;;;1.50;1.00;;;;;;;;5093254;27;45448;-76
2021/12/07 04:05:44;;;;;;;;;0.75;0.00;;;;;;;;5092836;27;44914;-75
2021/12/07 04:08:10;;;;;;;;;2.00;1.00;;;;;;;;5093918;27;48571;-75
2021/12/07 04:10:35;;;;;;;;;3.25;1.00;;;;;;;;5115035;27;45356;-76
2021/12/07 04:13:00;;;;;;;;;4.00;3.00;;;;;;;;5113971;27;45358;-76
2021/12/07 04:15:25;;;;;;;;;0.75;0.75;;;;;;;;5110911;27;45465;-74
2021/12/07 04:17:50;;;;;;;;;0.00;0.00;;;;;;;;5113972;27;45466;-75
2021/12/07 04:20:17;;;;;;;;;3.25;1.00;;;;;;;;5092521;27;45487;-76
2021/12/07 04:22:42;;;;;;;;;0.00;0.00;;;;;;;;5096054;27;45296;-77
2021/12/07 04:25:09;;;;;;;;;1.00;0.00;;;;;;;;5083714;27;44928;-75
2021/12/07 04:27:38;;;;;;;;;1.00;1.00;;;;;;;;5082974;27;48566;-74
2021/12/07 04:30:05;;;;;;;;;2.00;0.00;;;;;;;;5084483;27;45521;-75
2021/12/07 04:32:30;;;;;;;;;1.00;1.00;;;;;;;;5089629;27;45538;-75
2021/12/07 04:34:55;;;;;;;;;3.00;3.00;;;;;;;;5113990;27;45423;-76
2021/12/07 04:37:20;;;;;;;;;1.00;1.00;;;;;;;;5111528;27;46446;-77
2021/12/07 04:39:46;;;;;;;;;1.00;1.00;;;;;;;;5111846;27;45358;-75
2021/12/07 04:42:11;;;;;;;;;2.00;1.00;;;;;;;;5110860;27;45406;-77
2021/12/07 04:44:43;;;;;;;;;2.00;2.00;;;;;;;;5110764;27;45351;-76
2021/12/07 04:47:20;;;;;;;;;0.75;0.75;;;;;;;;5111338;27;46375;-75
2021/12/07 04:57:46;;;;;;;;;1.50;1.50;;;;;;;;5101241;27;45738;-77
2021/12/07 05:00:22;;;;;;;;;1.75;0.75;;;;;;;;5083259;27;45563;-76
2021/12/07 05:02:54;;;;;;;;;3.50;1.00;;;;;;;;5082114;27;45518;-77
2021/12/07 05:05:21;;;;;;;;;3.50;0.50;;;;;;;;5080998;27;45912;-76
2021/12/07 05:07:51;;;;;;;;;3.75;1.25;;;;;;;;5105216;27;47727;-76
2021/12/07 05:10:24;;;;;;;;;2.00;1.00;;;;;;;;5093626;27;45229;-76
2021/12/07 05:24:53;;;;;;;;;1.50;1.00;;;;;;;;5109621;27;45330;-77
2021/12/07 05:37:46;;;;;;;;;4.00;2.00;;;;;;;;5111599;27;45469;-76
2021/12/07 05:40:13;;;;;;;;;2.25;1.25;;;;;;;;5087285;27;47600;-76
2021/12/07 05:42:39;;;;;;;;;2.00;2.00;;;;;;;;5100554;27;45456;-75
2021/12/07 05:45:09;;;;;;;;;3.00;2.00;;;;;;;;5087771;27;45539;-75
2021/12/07 05:47:34;;;;;;;;;5.00;3.00;;;;;;;;5082330;27;45449;-76
2021/12/07 05:49:59;;;;;;;;;2.25;1.25;;;;;;;;5105415;27;45448;-76
2021/12/07 05:52:25;;;;;;;;;6.50;5.75;;;;;;;;5102970;27;45417;-74
2021/12/07 05:54:50;;;;;;;;;9.00;7.50;;;;;;;;5104583;27;45412;-77
2021/12/07 05:57:15;;;;;;;;;5.50;3.00;;;;;;;;5092471;27;45439;-76
2021/12/07 05:59:41;;;;;;;;;6.00;3.75;;;;;;;;5095264;27;48651;-75
2021/12/07 06:02:06;;;;;;;;;1.00;1.00;;;;;;;;5103093;27;47051;-77
2021/12/07 06:04:31;;;;;;;;;2.00;2.00;;;;;;;;5097986;27;45219;-78
2021/12/07 06:06:57;;;;;;;;;3.00;2.00;;;;;;;;5090344;27;45361;-77
2021/12/07 06:09:23;;;;;;;;;2.00;1.50;;;;;;;;5083668;27;48518;-77
2021/12/07 06:11:50;;;;;;;;;2.75;1.75;;;;;;;;5097653;27;45226;-77
2021/12/07 06:14:18;;;;;;;;;4.00;2.50;;;;;;;;5084002;27;45428;-77
2021/12/07 06:16:44;;;;;;;;;6.50;3.75;;;;;;;;5079259;27;45531;-78
2021/12/07 06:19:09;;;;;;;;;15.00;12.75;;;;;;;;5092970;27;47413;-78
2021/12/07 06:21:34;;;;;;;;;14.75;13.75;;;;;;;;5109007;27;45458;-76
2021/12/07 06:23:59;;;;;;;;;9.75;9.75;;;;;;;;5090697;27;45409;-76
2021/12/07 06:26:25;;;;;;;;;11.50;10.50;;;;;;;;5090693;27;45479;-73
2021/12/07 06:28:50;;;;;;;;;9.00;9.00;;;;;;;;5113633;27;45436;-74
2021/12/07 06:31:17;;;;;;;;;8.50;7.50;;;;;;;;5093524;27;45453;-74
2021/12/07 06:33:42;;;;;;;;;7.25;7.25;;;;;;;;5100297;27;45313;-64
2021/12/07 06:36:07;;;;;;;;;7.75;4.00;;;;;;;;5100789;27;45309;-77
2021/12/07 06:38:33;;;;;;;;;3.50;3.00;;;;;;;;5100688;27;45621;-76
2021/12/07 06:40:59;;;;;;;;;3.00;3.00;;;;;;;;5098040;27;45426;-74
2021/12/07 06:43:25;;;;;;;;;7.00;6.00;;;;;;;;5080972;27;45383;-76
2021/12/07 06:45:50;;;;;;;;;7.75;7.50;;;;;;;;5085562;27;45444;-76
2021/12/07 06:48:15;;;;;;;;;12.00;10.75;;;;;;;;5103681;27;45380;-76
2021/12/07 06:50:41;;;;;;;;;11.00;8.00;;;;;;;;5084829;27;45515;-77
2021/12/07 06:53:06;;;;;;;;;14.25;12.00;;;;;;;;5096426;27;44960;-77
2021/12/07 06:55:32;;;;;;;;;11.25;10.00;;;;;;;;5115880;27;45346;-76
2021/12/07 06:57:57;;;;;;;;;8.75;7.75;;;;;;;;5096115;27;48522;-75
2021/12/07 07:00:22;;;;;;;;;8.00;7.75;;;;;;;;5106402;27;45513;-77
2021/12/07 07:02:47;;;;;;;;;12.50;9.75;;;;;;;;5104343;27;45410;-77
2021/12/07 07:05:13;;;;;;;;;10.00;9.50;;;;;;;;5085139;27;45452;-77
2021/12/07 07:07:39;;;;;;;;;11.00;11.00;;;;;;;;5082039;27;47882;-77
2021/12/07 07:10:05;;;;;;;;;7.25;7.00;;;;;;;;5085137;27;46221;-77
2021/12/07 07:12:31;;;;;;;;;7.75;7.75;;;;;;;;5085499;27;45192;-76
2021/12/07 07:14:56;;;;;;;;;11.00;9.25;;;;;;;;5104007;27;45298;-77
2021/12/07 07:17:21;;;;;;;;;8.25;8.00;;;;;;;;5085469;27;48531;-76
2021/12/07 07:19:46;;;;;;;;;9.00;9.00;;;;;;;;5081439;27;45397;-74
2021/12/07 07:22:12;;;;;;;;;28.50;23.25;;;;;;;;5084161;27;46027;-76
2021/12/07 07:24:37;;;;;;;;;12.50;12.00;;;;;;;;5085501;27;45682;-76
2021/12/07 07:27:03;;;;;;;;;16.75;14.00;;;;;;;;5103751;27;46426;-76
2021/12/07 07:29:28;;;;;;;;;23.25;22.00;;;;;;;;5084054;27;45276;-75
2021/12/07 07:31:54;;;;;;;;;21.75;17.50;;;;;;;;5097693;27;45496;-77
2021/12/07 07:34:19;;;;;;;;;19.75;17.25;;;;;;;;5114880;27;45301;-76
2021/12/07 07:36:44;;;;;;;;;15.50;14.00;;;;;;;;5112739;27;45393;-76
2021/12/07 07:39:10;;;;;;;;;12.00;10.75;;;;;;;;5108166;27;45393;-77
2021/12/07 07:41:36;;;;;;;;;15.50;13.00;;;;;;;;5103560;27;45455;-77
2021/12/07 07:44:01;;;;;;;;;15.00;12.75;;;;;;;;5101115;27;45350;-76
2021/12/07 07:46:26;;;;;;;;;13.75;13.75;;;;;;;;5082685;27;48518;-77
2021/12/07 07:48:52;;;;;;;;;13.75;13.50;;;;;;;;5103034;27;45271;-76
2021/12/07 07:51:17;;;;;;;;;16.75;12.50;;;;;;;;5103637;27;45662;-76
2021/12/07 07:53:42;;;;;;;;;11.50;10.00;;;;;;;;5085450;27;45458;-76
2021/12/07 07:56:07;;;;;;;;;11.00;10.50;;;;;;;;5112512;27;45323;-76
2021/12/07 07:58:33;;;;;;;;;11.00;11.00;;;;;;;;5114855;27;45510;-76
2021/12/07 08:00:58;;;;;;;;;15.50;13.50;;;;;;;;5095316;27;45285;-75
2021/12/07 08:03:23;;;;;;;;;13.50;13.50;;;;;;;;5111702;27;45468;-76
2021/12/07 08:05:49;;;;;;;;;9.25;8.25;;;;;;;;5111674;27;45767;-76
2021/12/07 08:08:14;;;;;;;;;14.75;13.75;;;;;;;;5093673;27;46621;-76
2021/12/07 08:10:39;;;;;;;;;20.75;15.00;;;;;;;;5097458;27;45245;-76
2021/12/07 08:13:05;;;;;;;;;16.50;13.25;;;;;;;;5095325;27;45321;-74
2021/12/07 08:15:31;;;;;;;;;14.50;14.50;;;;;;;;5092693;27;47704;-76
2021/12/07 08:17:57;;;;;;;;;16.75;14.50;;;;;;;;5090767;27;45558;-76
2021/12/07 08:20:22;;;;;;;;;14.75;12.25;;;;;;;;5103295;27;45394;-76
2021/12/07 08:22:48;;;;;;;;;24.00;19.50;;;;;;;;5098382;27;45388;-75
2021/12/07 08:25:13;;;;;;;;;17.75;15.75;;;;;;;;5083506;27;48368;-76
2021/12/07 08:27:38;;;;;;;;;19.00;19.00;;;;;;;;5084644;27;46090;-76
2021/12/07 08:30:04;;;;;;;;;21.25;21.25;;;;;;;;5103075;27;45423;-75
2021/12/07 08:32:30;;;;;;;;;25.25;23.50;;;;;;;;5104038;27;45295;-75
2021/12/07 08:34:55;;;;;;;;;25.00;21.50;;;;;;;;5095926;27;47990;-76
2021/12/07 08:37:20;;;;;;;;;21.50;16.75;;;;;;;;5113792;27;45467;-75
2021/12/07 08:39:46;;;;;;;;;20.75;18.25;;;;;;;;5112254;27;45324;-76
2021/12/07 08:42:11;;;;;;;;;22.75;21.50;;;;;;;;5092658;27;45428;-76
2021/12/07 08:44:36;;;;;;;;;28.75;24.50;;;;;;;;5092253;27;47462;-76
2021/12/07 08:47:01;;;;;;;;;21.25;21.25;;;;;;;;5113667;27;45645;-75
2021/12/07 08:49:27;;;;;;;;;19.50;18.75;;;;;;;;5095402;27;45843;-76
2021/12/07 08:51:52;;;;;;;;;27.50;24.75;;;;;;;;5094165;27;45572;-75
2021/12/07 08:54:27;;;;;;;;;21.00;20.50;;;;;;;;5110632;27;46173;-75
2021/12/07 08:59:44;;;;;;;;;25.25;21.75;;;;;;;;5103470;27;45360;-75
2021/12/07 09:02:09;;;;;;;;;21.50;21.00;;;;;;;;5080205;27;45336;-75
2021/12/07 09:04:35;;;;;;;;;27.00;24.25;;;;;;;;5094661;27;47566;-74
2021/12/07 09:07:00;;;;;;;;;14.75;14.00;;;;;;;;5127641;27;45415;-75
2021/12/07 09:09:27;;;;;;;;;23.00;21.75;;;;;;;;5124149;27;45360;-75
2021/12/07 09:11:53;;;;;;;;;22.00;21.25;;;;;;;;5092753;27;45472;-76
2021/12/07 09:14:19;;;;;;;;;19.00;15.50;;;;;;;;5091926;27;47620;-75
2021/12/07 09:16:45;;;;;;;;;23.75;19.50;;;;;;;;5096204;27;45376;-76
2021/12/07 09:19:10;;;;;;;;;17.00;17.00;;;;;;;;5094490;27;45328;-75
2021/12/07 09:21:35;;;;;;;;;17.00;14.00;;;;;;;;5110546;27;45308;-75
2021/12/07 09:24:01;;;;;;;;;23.25;21.75;;;;;;;;5091646;27;47655;-75
2021/12/07 09:26:26;;;;;;;;;18.75;16.75;;;;;;;;5091853;27;45171;-75
2021/12/07 09:28:51;;;;;;;;;15.75;14.00;;;;;;;;5114603;27;45362;-76
2021/12/07 09:31:17;;;;;;;;;19.75;16.75;;;;;;;;5094449;27;45567;-74
2021/12/07 09:33:42;;;;;;;;;18.75;14.25;;;;;;;;5110968;27;48997;-75
2021/12/07 09:36:09;;;;;;;;;17.50;15.25;;;;;;;;5087970;27;45352;-75
2021/12/07 09:38:35;;;;;;;;;19.75;18.75;;;;;;;;5102264;27;45225;-76
2021/12/07 09:41:00;;;;;;;;;21.00;16.00;;;;;;;;5099681;27;45214;-75
2021/12/07 09:43:26;;;;;;;;;24.50;20.50;;;;;;;;5081092;27;47485;-75
2021/12/07 09:45:51;;;;;;;;;17.25;15.00;;;;;;;;5101807;27;45392;-75
2021/12/07 09:48:16;;;;;;;;;16.75;14.50;;;;;;;;5101973;27;45444;-75
2021/12/07 09:50:44;;;;;;;;;13.75;13.75;;;;;;;;5083592;27;44840;-76
2021/12/07 09:53:10;;;;;;;;;20.50;15.50;;;;;;;;5100380;27;46654;-75
2021/12/07 09:55:37;;;;;;;;;16.75;16.25;;;;;;;;5098635;27;45502;-75
2021/12/07 09:58:03;;;;;;;;;13.00;12.00;;;;;;;;5101113;27;45384;-75
2021/12/07 10:00:28;;;;;;;;;17.50;13.75;;;;;;;;5101908;27;45308;-75
2021/12/07 10:02:54;;;;;;;;;13.00;11.50;;;;;;;;5083389;27;47489;-74
2021/12/07 10:05:20;;;;;;;;;18.25;14.50;;;;;;;;5083246;27;45425;-75
2021/12/07 10:07:46;;;;;;;;;15.25;12.25;;;;;;;;5079161;27;45342;-74
2021/12/07 10:10:21;;;;;;;;;15.50;15.50;;;;;;;;5100685;27;45439;-74
2021/12/07 10:12:46;;;;;;;;;16.75;14.75;;;;;;;;5101161;27;46158;-76
2021/12/07 10:15:11;;;;;;;;;14.50;11.75;;;;;;;;5103776;27;45573;-74
2021/12/07 10:17:37;;;;;;;;;16.75;16.50;;;;;;;;5083837;27;45797;-75
2021/12/07 10:20:23;;;;;;;;;17.00;14.75;;;;;;;;5088049;27;45497;-75
2021/12/07 10:22:48;;;;;;;;;12.00;10.50;;;;;;;;5101658;27;46733;-72
2021/12/07 10:25:23;;;;;;;;;17.25;16.75;;;;;;;;5097272;27;45256;-74
2021/12/07 10:27:49;;;;;;;;;13.25;13.25;;;;;;;;5114772;27;45474;-74
2021/12/07 10:30:18;;;;;;;;;19.25;18.25;;;;;;;;5112965;27;45238;-74
2021/12/07 10:32:55;;;;;;;;;17.00;15.25;;;;;;;;5113212;27;46299;-75
2021/12/07 10:35:27;;;;;;;;;14.00;14.00;;;;;;;;5094527;27;45451;-74
2021/12/07 10:38:07;;;;;;;;;14.25;13.75;;;;;;;;5117222;27;45603;-75
2021/12/07 10:40:32;;;;;;;;;19.50;15.50;;;;;;;;5097308;27;45494;-75
2021/12/07 10:42:57;;;;;;;;;13.75;11.25;;;;;;;;5115181;27;45416;-75
2021/12/07 10:45:27;;;;;;;;;25.00;18.25;;;;;;;;5112856;27;45345;-75
2021/12/07 10:47:52;;;;;;;;;20.25;17.25;;;;;;;;5094801;27;45507;-76
2021/12/07 10:50:18;;;;;;;;;14.00;12.75;;;;;;;;5094565;27;45408;-75
2021/12/07 10:52:45;;;;;;;;;18.25;16.25;;;;;;;;5098568;27;48447;-76
2021/12/07 10:55:25;;;;;;;;;15.25;11.50;;;;;;;;5096321;27;45262;-74
2021/12/07 10:57:50;;;;;;;;;20.00;16.00;;;;;;;;5094982;27;45288;-75
2021/12/07 11:00:32;;;;;;;;;17.75;16.75;;;;;;;;5093906;27;45290;-74
2021/12/07 11:03:01;;;;;;;;;15.00;13.25;;;;;;;;5112631;27;45855;-75
2021/12/07 11:05:28;;;;;;;;;15.00;12.00;;;;;;;;5112511;27;45276;-75
2021/12/07 11:07:54;;;;;;;;;14.00;12.75;;;;;;;;5116429;27;45562;-75
2021/12/07 11:10:29;;;;;;;;;12.50;12.25;;;;;;;;5114893;27;45795;-74
2021/12/07 11:15:31;;;;;;;;;23.50;19.00;;;;;;;;5112385;27;45300;-75
2021/12/07 11:18:07;;;;;;;;;15.75;14.75;;;;;;;;5093974;27;45495;-75
2021/12/07 11:20:34;;;;;;;;;18.00;17.50;;;;;;;;5093926;27;45437;-75
2021/12/07 11:23:14;;;;;;;;;18.00;18.00;;;;;;;;5096442;27;47473;-75
2021/12/07 11:31:18;;;;;;;;;16.50;15.00;;;;;;;;5101667;27;45451;-73
2021/12/07 11:33:44;;;;;;;;;12.25;9.00;;;;;;;;5112573;27;45167;-76
2021/12/07 11:36:16;;;;;;;;;19.50;16.50;;;;;;;;5093616;27;46335;-76
2021/12/07 11:38:42;;;;;;;;;14.25;14.25;;;;;;;;5112277;27;45430;-76
2021/12/07 11:41:19;;;;;;;;;15.00;14.25;;;;;;;;5114001;27;45375;-75
2021/12/07 11:43:52;;;;;;;;;14.75;13.00;;;;;;;;5116648;27;45221;-77
2021/12/07 11:46:18;;;;;;;;;11.25;10.75;;;;;;;;5114586;27;45374;-74
2021/12/07 11:48:44;;;;;;;;;7.25;6.25;;;;;;;;5112252;27;45475;-76
2021/12/07 11:51:09;;;;;;;;;11.75;10.50;;;;;;;;5090670;27;45330;-76
2021/12/07 11:53:35;;;;;;;;;9.25;7.00;;;;;;;;5082818;27;48440;-73
2021/12/07 11:56:00;;;;;;;;;13.75;10.50;;;;;;;;5079741;27;45528;-75
2021/12/07 11:58:27;;;;;;;;;8.00;5.00;;;;;;;;5082481;27;45623;-74
2021/12/07 12:00:53;;;;;;;;;12.75;10.75;;;;;;;;5084830;27;45610;-75
2021/12/07 12:03:22;;;;;;;;;15.25;10.00;;;;;;;;5084339;27;48219;-75
2021/12/07 12:05:48;;;;;;;;;14.75;13.50;;;;;;;;5084392;27;45412;-75
2021/12/07 12:08:16;;;;;;;;;10.75;10.25;;;;;;;;5084816;27;45468;-76
2021/12/07 12:10:44;;;;;;;;;7.25;7.00;;;;;;;;5097055;27;45401;-76
2021/12/07 12:13:17;;;;;;;;;12.50;11.00;;;;;;;;5093924;27;47728;-76
2021/12/07 12:15:56;;;;;;;;;9.00;8.00;;;;;;;;5103167;27;45490;-74
2021/12/07 12:18:24;;;;;;;;;10.75;10.75;;;;;;;;5103019;27;45289;-76
2021/12/07 12:21:08;;;;;;;;;9.75;7.50;;;;;;;;5084527;27;45670;-77
2021/12/07 12:23:46;;;;;;;;;9.50;8.75;;;;;;;;5102873;27;46190;-75
2021/12/07 12:26:12;;;;;;;;;12.00;10.50;;;;;;;;5083082;27;46155;-76
2021/12/07 12:28:40;;;;;;;;;11.75;10.25;;;;;;;;5099518;27;45515;-75
2021/12/07 12:31:07;;;;;;;;;11.00;9.50;;;;;;;;5102057;27;45376;-75
2021/12/07 12:33:43;;;;;;;;;8.75;8.50;;;;;;;;5102704;27;45653;-75
2021/12/07 12:36:08;;;;;;;;;8.75;8.75;;;;;;;;5102513;27;45290;-76
2021/12/07 12:38:33;;;;;;;;;11.25;9.25;;;;;;;;5102608;27;45638;-77
2021/12/07 12:41:07;;;;;;;;;5.50;4.25;;;;;;;;5099363;27;45480;-75
2021/12/07 12:43:46;;;;;;;;;9.75;8.50;;;;;;;;5099947;27;46931;-73
2021/12/07 12:46:13;;;;;;;;;5.00;5.00;;;;;;;;5101641;27;45289;-75
2021/12/07 12:48:42;;;;;;;;;4.00;4.00;;;;;;;;5084062;27;45530;-75
2021/12/07 12:51:09;;;;;;;;;9.00;9.00;;;;;;;;5102991;27;45401;-77
2021/12/07 12:53:34;;;;;;;;;8.25;4.25;;;;;;;;5084009;27;48807;-75
2021/12/07 12:56:10;;;;;;;;;9.00;7.50;;;;;;;;5080771;27;45909;-74
2021/12/07 12:58:38;;;;;;;;;8.00;7.50;;;;;;;;5081161;27;45529;-77
2021/12/07 13:01:04;;;;;;;;;7.50;7.00;;;;;;;;5083196;27;45596;-75
2021/12/07 13:03:41;;;;;;;;;4.50;3.00;;;;;;;;5083723;27;48409;-78
2021/12/07 13:06:06;;;;;;;;;5.00;5.00;;;;;;;;5102366;27;45484;-76
2021/12/07 13:08:32;;;;;;;;;3.50;3.50;;;;;;;;5102851;27;45711;-75
2021/12/07 13:10:59;;;;;;;;;8.75;8.75;;;;;;;;5081062;27;45450;-77
2021/12/07 13:13:25;;;;;;;;;10.00;3.00;;;;;;;;5099782;27;45537;-75
2021/12/07 13:15:51;;;;;;;;;10.50;8.50;;;;;;;;5111471;27;45594;-77
2021/12/07 13:18:22;;;;;;;;;9.00;9.00;;;;;;;;5092056;27;45431;-76
2021/12/07 13:20:50;;;;;;;;;5.50;4.75;;;;;;;;5110644;27;45329;-77
2021/12/07 13:23:16;;;;;;;;;4.00;4.00;;;;;;;;5110597;27;46064;-76
2021/12/07 13:25:52;;;;;;;;;7.50;6.25;;;;;;;;5095907;27;46011;-75
2021/12/07 13:28:21;;;;;;;;;5.25;5.00;;;;;;;;5092119;27;45143;-75
2021/12/07 13:30:52;;;;;;;;;8.50;4.75;;;;;;;;5101849;27;45696;-76
2021/12/07 13:33:19;;;;;;;;;9.00;6.50;;;;;;;;5083254;27;48755;-77
2021/12/07 13:35:45;;;;;;;;;3.25;3.25;;;;;;;;5101866;27;45433;-77
2021/12/07 13:38:21;;;;;;;;;7.50;6.00;;;;;;;;5081901;27;45476;-76
2021/12/07 13:40:49;;;;;;;;;5.75;4.25;;;;;;;;5098289;27;45339;-76
2021/12/07 13:43:29;;;;;;;;;5.25;3.25;;;;;;;;5090142;27;47392;-75
2021/12/07 13:46:08;;;;;;;;;6.75;4.50;;;;;;;;5111652;27;45266;-75
2021/12/07 13:48:33;;;;;;;;;4.50;4.00;;;;;;;;5110103;27;45269;-76
2021/12/07 13:50:59;;;;;;;;;5.00;5.00;;;;;;;;5110262;27;45344;-76
2021/12/07 13:53:26;;;;;;;;;6.75;4.00;;;;;;;;5109026;27;46494;-75
2021/12/07 13:55:51;;;;;;;;;5.25;4.75;;;;;;;;5095752;27;45415;-75
2021/12/07 13:58:16;;;;;;;;;6.75;5.50;;;;;;;;5094300;27;45420;-77
2021/12/07 14:00:42;;;;;;;;;5.00;5.00;;;;;;;;5109839;27;45535;-77
2021/12/07 14:03:08;;;;;;;;;5.25;3.00;;;;;;;;5109790;27;46527;-77
2021/12/07 14:05:35;;;;;;;;;10.25;5.25;;;;;;;;5091979;27;45528;-77
2021/12/07 14:08:01;;;;;;;;;5.00;5.00;;;;;;;;5095435;27;45443;-77
2021/12/07 14:10:28;;;;;;;;;4.00;4.00;;;;;;;;5080719;27;45454;-76
2021/12/07 14:12:54;;;;;;;;;4.00;2.00;;;;;;;;5101149;27;45276;-77
2021/12/07 14:15:22;;;;;;;;;3.25;3.25;;;;;;;;5101119;27;45534;-76
2021/12/07 14:17:49;;;;;;;;;4.00;4.00;;;;;;;;5101314;27;45414;-75
2021/12/07 14:20:25;;;;;;;;;5.00;4.00;;;;;;;;5082169;27;45508;-77
2021/12/07 14:22:51;;;;;;;;;2.25;2.25;;;;;;;;5098213;27;46778;-76
2021/12/07 14:25:17;;;;;;;;;4.00;4.00;;;;;;;;5112302;27;45420;-77
2021/12/07 14:27:44;;;;;;;;;5.50;3.00;;;;;;;;5109581;27;45407;-76
2021/12/07 14:30:11;;;;;;;;;6.50;4.00;;;;;;;;5109105;27;45569;-76
2021/12/07 14:32:38;;;;;;;;;9.75;5.75;;;;;;;;5090744;27;47701;-76
2021/12/07 14:35:03;;;;;;;;;7.75;5.50;;;;;;;;5112012;27;45465;-76
2021/12/07 14:37:29;;;;;;;;;6.50;2.75;;;;;;;;5106357;27;45367;-77
2021/12/07 14:39:54;;;;;;;;;6.00;5.00;;;;;;;;5111377;27;45363;-77
2021/12/07 14:42:21;;;;;;;;;8.50;5.50;;;;;;;;5109402;27;45627;-78
2021/12/07 14:44:48;;;;;;;;;7.00;6.25;;;;;;;;5084958;27;45514;-77
2021/12/07 14:47:14;;;;;;;;;5.25;4.75;;;;;;;;5100053;27;45629;-77
2021/12/07 14:49:41;;;;;;;;;4.75;4.00;;;;;;;;5097300;27;45339;-77
2021/12/07 14:52:11;;;;;;;;;5.00;4.00;;;;;;;;5081386;27;47508;-77
2021/12/07 14:54:37;;;;;;;;;7.00;4.00;;;;;;;;5082468;27;45621;-76
2021/12/07 14:57:02;;;;;;;;;5.50;4.00;;;;;;;;5101471;27;45460;-76
2021/12/07 14:59:27;;;;;;;;;5.75;5.75;;;;;;;;5099371;27;45490;-77
2021/12/07 15:01:54;;;;;;;;;6.75;5.00;;;;;;;;5113555;27;45591;-76
2021/12/07 15:04:21;;;;;;;;;4.00;4.00;;;;;;;;5093898;27;45415;-74
2021/12/07 15:07:06;;;;;;;;;5.75;3.75;;;;;;;;5113307;27;45281;-75
2021/12/07 15:09:35;;;;;;;;;4.50;4.50;;;;;;;;5094292;27;45361;-76
2021/12/07 15:12:01;;;;;;;;;2.75;1.75;;;;;;;;5112644;27;45725;-76
2021/12/07 15:14:28;;;;;;;;;5.00;4.00;;;;;;;;5105252;27;46287;-73
2021/12/07 15:16:55;;;;;;;;;1.25;1.25;;;;;;;;5132848;27;49229;-75
2021/12/07 15:19:21;;;;;;;;;3.75;2.00;;;;;;;;5098618;27;45303;-75
2021/12/07 15:21:46;;;;;;;;;2.75;2.00;;;;;;;;5113036;27;45411;-76
2021/12/07 15:24:13;;;;;;;;;2.50;1.50;;;;;;;;5107686;27;45369;-75
2021/12/07 15:26:39;;;;;;;;;3.75;2.25;;;;;;;;5085444;27;45558;-76
2021/12/07 15:29:04;;;;;;;;;11.25;7.75;;;;;;;;5101573;27;45335;-75
2021/12/07 15:31:34;;;;;;;;;5.00;3.50;;;;;;;;5101179;27;46375;-76
2021/12/07 15:34:00;;;;;;;;;4.75;4.75;;;;;;;;5084462;27;46754;-76
2021/12/07 15:36:26;;;;;;;;;4.75;4.00;;;;;;;;5091161;27;45473;-74
2021/12/07 15:39:24;;;;;;;;;4.75;4.50;;;;;;;;5112252;27;45501;-77
2021/12/07 15:41:51;;;;;;;;;5.00;3.50;;;;;;;;5009914;28;46073;-76
2021/12/07 15:44:17;;;;;;;;;9.00;4.00;;;;;;;;4994078;28;45576;-75
2021/12/07 15:46:47;;;;;;;;;5.25;5.25;;;;;;;;5014120;28;45483;-75
2021/12/07 15:49:12;;;;;;;;;5.25;5.25;;;;;;;;5000113;28;45473;-75
2021/12/07 15:51:48;;;;;;;;;5.00;5.00;;;;;;;;5003333;28;45701;-76
2021/12/07 15:54:13;;;;;;;;;7.75;4.00;;;;;;;;5003011;28;45519;-76
2021/12/07 15:56:38;;;;;;;;;4.00;3.00;;;;;;;;5005091;28;45886;-77
2021/12/07 15:59:11;;;;;;;;;6.75;4.00;;;;;;;;4996937;28;45439;-76
2021/12/07 16:01:37;;;;;;;;;3.00;1.75;;;;;;;;4993271;28;47317;-77
2021/12/07 16:04:03;;;;;;;;;6.00;3.00;;;;;;;;4991625;28;45373;-75
2021/12/07 16:06:29;;;;;;;;;2.50;2.50;;;;;;;;4991771;28;45518;-75
2021/12/07 16:08:57;;;;;;;;;3.00;3.00;;;;;;;;5008026;28;45470;-74
2021/12/07 16:11:23;;;;;;;;;1.75;1.75;;;;;;;;5007121;28;46382;-73
2021/12/07 16:13:51;;;;;;;;;8.00;4.00;;;;;;;;5007575;28;46112;-74
2021/12/07 16:16:21;;;;;;;;;2.00;2.00;;;;;;;;5005244;27;45680;-74
2021/12/07 16:18:46;;;;;;;;;2.00;1.00;;;;;;;;5111687;27;45401;-75